Time,TemperatureF,DewpointF,PressureIn,WindDirection,WindDirectionDegrees,WindSpeedMPH,WindSpeedGustMPH,Humidity,HourlyPrecipIn,Conditions,Clouds,dailyrainin,SolarRadiationWatts/m^2,SoftwareType,DateUTC
2013-05-18 00:00:00,70.7,39.0,29.65,WNW,282,0.0,-999.0,12,-99.99,,,0.00,0.0,cwc,2013-05-18 06:00:00,
2013-05-18 00:05:00,70.2,38.5,29.65,West,279,5.0,-999.0,12,-99.99,,,0.00,0.0,cwc,2013-05-18 06:05:00,
2013-05-18 00:10:00,69.9,38.2,29.65,WSW,254,5.0,-999.0,12,-99.99,,,0.00,0.0,cwc,2013-05-18 06:10:00,
2013-05-18 00:15:00,69.9,38.2,29.65,WSW,253,1.0,-999.0,12,-99.99,,,0.00,0.0,cwc,2013-05-18 06:15:00,
2013-05-18 00:20:00,70.0,38.3,29.65,WSW,254,3.0,-999.0,12,-99.99,,,0.00,0.0,cwc,2013-05-18 06:20:00,
2013-05-18 00:25:00,70.0,38.3,29.64,WSW,254,0.0,-999.0,12,-99.99,,,0.00,0.0,cwc,2013-05-18 06:25:00,
2013-05-18 00:30:00,69.9,38.2,29.63,SW,232,4.0,-999.0,12,-99.99,,,0.00,0.0,cwc,2013-05-18 06:30:00,
2013-05-18 00:35:00,70.0,38.3,29.63,SW,230,3.0,-999.0,12,-99.99,,,0.00,0.0,cwc,2013-05-18 06:35:00,
2013-05-18 00:40:00,70.0,38.3,29.63,SW,229,3.0,-999.0,12,-99.99,,,0.00,0.0,cwc,2013-05-18 06:40:00,
2013-05-18 00:45:00,69.9,38.2,29.63,SSW,194,2.0,-999.0,12,-99.99,,,0.00,0.0,cwc,2013-05-18 06:45:00,
2013-05-18 00:50:00,69.6,38.3,29.63,SW,214,4.0,-999.0,13,-99.99,,,0.00,0.0,cwc,2013-05-18 06:50:00,
2013-05-18 00:55:00,69.4,38.1,29.63,SW,215,5.0,-999.0,13,-99.99,,,0.00,0.0,cwc,2013-05-18 06:55:00,
2013-05-18 01:00:00,69.2,37.9,29.64,SW,219,7.0,-999.0,13,-99.99,,,0.00,0.0,cwc,2013-05-18 07:00:00,
2013-05-18 01:05:00,68.9,37.6,29.64,SW,220,1.0,-999.0,13,-99.99,,,0.00,0.0,cwc,2013-05-18 07:05:00,
2013-05-18 01:10:00,68.6,37.6,29.64,SW,223,7.0,-999.0,14,-99.99,,,0.00,0.0,cwc,2013-05-18 07:10:00,
2013-05-18 01:15:00,68.4,37.8,29.63,SW,229,3.0,-999.0,15,-99.99,,,0.00,0.0,cwc,2013-05-18 07:15:00,
2013-05-18 01:25:00,68.0,37.4,29.64,South,177,4.0,-999.0,15,-99.99,,,0.00,0.0,cwc,2013-05-18 07:25:00,
2013-05-18 01:30:00,67.7,37.5,29.64,South,178,0.0,-999.0,16,-99.99,,,0.00,0.0,cwc,2013-05-18 07:30:00,
2013-05-18 01:35:00,67.4,37.2,29.63,SSW,198,0.0,-999.0,16,-99.99,,,0.00,0.0,cwc,2013-05-18 07:35:00,
2013-05-18 01:40:00,67.2,37.0,29.63,SSW,200,3.0,-999.0,16,-99.99,,,0.00,0.0,cwc,2013-05-18 07:40:00,
2013-05-18 01:45:00,66.9,36.7,29.64,SSW,200,3.0,-999.0,16,-99.99,,,0.00,0.0,cwc,2013-05-18 07:45:00,
2013-05-18 01:50:00,66.5,36.3,29.64,SSW,200,3.0,-999.0,16,-99.99,,,0.00,0.0,cwc,2013-05-18 07:50:00,
2013-05-18 01:55:00,66.1,36.2,29.64,SSW,200,0.0,-999.0,17,-99.99,,,0.00,0.0,cwc,2013-05-18 07:55:00,
2013-05-18 02:00:00,65.6,35.7,29.63,SSW,200,1.0,-999.0,17,-99.99,,,0.00,0.0,cwc,2013-05-18 08:00:00,
2013-05-18 02:05:00,65.0,35.5,29.64,SSW,200,0.0,-999.0,18,-99.99,,,0.00,0.0,cwc,2013-05-18 08:05:00,
2013-05-18 02:10:00,64.5,35.0,29.64,SSW,200,0.0,-999.0,18,-99.99,,,0.00,0.0,cwc,2013-05-18 08:10:00,
2013-05-18 02:15:00,63.8,34.6,29.64,SSW,200,1.0,-999.0,19,-99.99,,,0.00,0.0,cwc,2013-05-18 08:15:00,
2013-05-18 02:20:00,63.0,33.8,29.64,SSW,200,0.0,-999.0,19,-99.99,,,0.00,0.0,cwc,2013-05-18 08:20:00,
2013-05-18 02:25:00,62.3,33.5,29.64,SSW,200,0.0,-999.0,20,-99.99,,,0.00,0.0,cwc,2013-05-18 08:25:00,
2013-05-18 02:30:00,61.5,32.7,29.64,SSW,200,0.0,-999.0,20,-99.99,,,0.00,0.0,cwc,2013-05-18 08:30:00,
2013-05-18 02:35:00,60.8,32.4,29.64,SSW,200,2.0,-999.0,21,-99.99,,,0.00,0.0,cwc,2013-05-18 08:35:00,
2013-05-18 02:40:00,59.9,31.5,29.64,SSW,200,0.0,-999.0,21,-99.99,,,0.00,0.0,cwc,2013-05-18 08:40:00,
2013-05-18 02:45:00,59.0,31.3,29.64,SSW,200,2.0,-999.0,23,-99.99,,,0.00,0.0,cwc,2013-05-18 08:45:00,
2013-05-18 02:50:00,58.4,30.7,29.64,SSW,200,2.0,-999.0,23,-99.99,,,0.00,0.0,cwc,2013-05-18 08:50:00,
2013-05-18 02:55:00,57.8,30.1,29.64,SSW,200,2.0,-999.0,23,-99.99,,,0.00,0.0,cwc,2013-05-18 08:55:00,
2013-05-18 03:00:00,57.3,29.6,29.64,SSW,200,1.0,-999.0,23,-99.99,,,0.00,0.0,cwc,2013-05-18 09:00:00,
2013-05-18 03:05:00,57.0,29.6,29.64,SSW,200,2.0,-999.0,24,-99.99,,,0.00,0.0,cwc,2013-05-18 09:05:00,
2013-05-18 03:10:00,56.8,29.4,29.64,SSW,200,3.0,-999.0,24,-99.99,,,0.00,0.0,cwc,2013-05-18 09:10:00,
2013-05-18 03:15:00,56.5,29.1,29.64,SSW,200,0.0,-999.0,24,-99.99,,,0.00,0.0,cwc,2013-05-18 09:15:00,
2013-05-18 03:20:00,56.2,28.8,29.64,SSW,200,3.0,-999.0,24,-99.99,,,0.00,0.0,cwc,2013-05-18 09:20:00,
2013-05-18 03:25:00,55.8,28.4,29.64,SSW,201,0.0,-999.0,24,-99.99,,,0.00,0.0,cwc,2013-05-18 09:25:00,
2013-05-18 03:30:00,55.0,28.0,29.64,SSW,201,0.0,-999.0,25,-99.99,,,0.00,0.0,cwc,2013-05-18 09:30:00,
2013-05-18 03:35:00,54.2,27.6,29.64,SSW,201,2.0,-999.0,26,-99.99,,,0.00,0.0,cwc,2013-05-18 09:35:00,
2013-05-18 03:40:00,53.2,26.6,29.64,SSW,200,0.0,-999.0,26,-99.99,,,0.00,0.0,cwc,2013-05-18 09:40:00,
2013-05-18 03:45:00,52.7,26.1,29.64,SSW,201,3.0,-999.0,26,-99.99,,,0.00,0.0,cwc,2013-05-18 09:45:00,
2013-05-18 03:50:00,52.4,25.8,29.64,SSW,201,1.0,-999.0,26,-99.99,,,0.00,0.0,cwc,2013-05-18 09:50:00,
2013-05-18 03:55:00,52.0,25.7,29.64,SSW,200,2.0,-999.0,27,-99.99,,,0.00,0.0,cwc,2013-05-18 09:55:00,
2013-05-18 04:00:00,51.5,25.2,29.64,SSW,200,2.0,-999.0,27,-99.99,,,0.00,0.0,cwc,2013-05-18 10:00:00,
2013-05-18 04:05:00,51.5,25.2,29.64,SSW,200,2.0,-999.0,27,-99.99,,,0.00,0.0,cwc,2013-05-18 10:05:00,
2013-05-18 04:10:00,51.5,25.2,29.64,SSW,201,1.0,-999.0,27,-99.99,,,0.00,0.0,cwc,2013-05-18 10:10:00,
2013-05-18 04:15:00,51.0,24.4,29.64,SSW,201,1.0,-999.0,26,-99.99,,,0.00,0.0,cwc,2013-05-18 10:15:00,
2013-05-18 04:25:00,50.3,24.0,29.65,SSW,200,1.0,-999.0,27,-99.99,,,0.00,0.0,cwc,2013-05-18 10:25:00,
2013-05-18 04:30:00,49.9,24.0,29.65,SSW,200,1.0,-999.0,28,-99.99,,,0.00,0.0,cwc,2013-05-18 10:30:00,
2013-05-18 04:35:00,49.7,23.8,29.65,SSW,200,0.0,-999.0,28,-99.99,,,0.00,0.0,cwc,2013-05-18 10:35:00,
2013-05-18 04:40:00,49.3,23.7,29.66,SSW,200,1.0,-999.0,29,-99.99,,,0.00,0.0,cwc,2013-05-18 10:40:00,
2013-05-18 04:45:00,48.7,23.1,29.65,SSW,201,2.0,-999.0,29,-99.99,,,0.00,0.0,cwc,2013-05-18 10:45:00,
2013-05-18 04:50:00,48.6,23.0,29.65,SSW,201,2.0,-999.0,29,-99.99,,,0.00,0.0,cwc,2013-05-18 10:50:00,
2013-05-18 04:55:00,48.8,22.9,29.65,SSW,200,0.0,-999.0,28,-99.99,,,0.00,0.0,cwc,2013-05-18 10:55:00,
2013-05-18 05:00:00,48.6,23.0,29.66,SSW,201,2.0,-999.0,29,-99.99,,,0.00,0.0,cwc,2013-05-18 11:00:00,
2013-05-18 05:05:00,48.3,22.7,29.65,SSW,201,2.0,-999.0,29,-99.99,,,0.00,0.0,cwc,2013-05-18 11:05:00,
2013-05-18 05:10:00,48.2,22.6,29.66,SSW,201,1.0,-999.0,29,-99.99,,,0.00,0.0,cwc,2013-05-18 11:10:00,
2013-05-18 05:15:00,47.8,22.2,29.66,SSW,200,2.0,-999.0,29,-99.99,,,0.00,0.0,cwc,2013-05-18 11:15:00,
2013-05-18 05:20:00,47.5,21.9,29.66,SSW,201,3.0,-999.0,29,-99.99,,,0.00,0.0,cwc,2013-05-18 11:20:00,
2013-05-18 05:25:00,47.3,22.1,29.66,SSW,201,1.0,-999.0,30,-99.99,,,0.00,0.0,cwc,2013-05-18 11:25:00,
2013-05-18 05:30:00,47.2,22.0,29.66,SSW,200,3.0,-999.0,30,-99.99,,,0.00,0.0,cwc,2013-05-18 11:30:00,
2013-05-18 05:35:00,47.0,21.8,29.66,SSW,201,2.0,-999.0,30,-99.99,,,0.00,0.0,cwc,2013-05-18 11:35:00,
2013-05-18 05:40:00,46.6,21.8,29.66,SSW,201,2.0,-999.0,31,-99.99,,,0.00,0.0,cwc,2013-05-18 11:40:00,
2013-05-18 05:45:00,46.3,21.5,29.66,SSW,201,2.0,-999.0,31,-99.99,,,0.00,0.0,cwc,2013-05-18 11:45:00,
2013-05-18 05:50:00,46.5,21.3,29.66,SSW,200,3.0,-999.0,30,-99.99,,,0.00,0.0,cwc,2013-05-18 11:50:00,
2013-05-18 05:55:00,46.4,21.2,29.67,SSW,201,2.0,-999.0,30,-99.99,,,0.00,0.0,cwc,2013-05-18 11:55:00,
2013-05-18 06:00:00,46.1,21.3,29.67,SSW,201,0.0,-999.0,31,-99.99,,,0.00,5.0,cwc,2013-05-18 12:00:00,
2013-05-18 06:05:00,46.0,21.2,29.67,SSW,200,2.0,-999.0,31,-99.99,,,0.00,9.0,cwc,2013-05-18 12:05:00,
2013-05-18 06:10:00,45.8,21.0,29.67,SSW,200,1.0,-999.0,31,-99.99,,,0.00,11.0,cwc,2013-05-18 12:10:00,
2013-05-18 06:15:00,45.4,20.6,29.68,SSW,201,2.0,-999.0,31,-99.99,,,0.00,16.0,cwc,2013-05-18 12:15:00,
2013-05-18 06:20:00,45.3,20.5,29.68,SSW,201,2.0,-999.0,31,-99.99,,,0.00,19.0,cwc,2013-05-18 12:20:00,
2013-05-18 06:25:00,45.2,20.4,29.68,SSW,201,2.0,-999.0,31,-99.99,,,0.00,32.0,cwc,2013-05-18 12:25:00,
2013-05-18 06:30:00,45.4,20.9,29.68,SSW,200,2.0,-999.0,32,-99.99,,,0.00,51.0,cwc,2013-05-18 12:30:00,
2013-05-18 06:40:00,45.9,21.4,29.68,SSW,200,2.0,-999.0,32,-99.99,,,0.00,44.0,cwc,2013-05-18 12:40:00,
2013-05-18 06:45:00,46.2,21.4,29.68,SSW,200,4.0,-999.0,31,-99.99,,,0.00,51.0,cwc,2013-05-18 12:45:00,
2013-05-18 06:50:00,46.5,22.0,29.68,SSW,201,1.0,-999.0,32,-99.99,,,0.00,39.0,cwc,2013-05-18 12:50:00,
2013-05-18 06:55:00,46.9,22.4,29.68,SSW,201,1.0,-999.0,32,-99.99,,,0.00,40.0,cwc,2013-05-18 12:55:00,
2013-05-18 07:00:00,47.2,22.7,29.68,SSW,201,1.0,-999.0,32,-99.99,,,0.00,58.0,cwc,2013-05-18 13:00:00,
2013-05-18 07:05:00,47.2,23.1,29.68,SSW,200,1.0,-999.0,33,-99.99,,,0.00,70.0,cwc,2013-05-18 13:05:00,
2013-05-18 07:10:00,47.1,23.0,29.68,SSW,201,0.0,-999.0,33,-99.99,,,0.00,76.0,cwc,2013-05-18 13:10:00,
2013-05-18 07:15:00,47.2,23.1,29.69,SSW,201,0.0,-999.0,33,-99.99,,,0.00,84.0,cwc,2013-05-18 13:15:00,
2013-05-18 07:20:00,47.4,23.6,29.69,SSW,200,0.0,-999.0,34,-99.99,,,0.00,90.0,cwc,2013-05-18 13:20:00,
2013-05-18 07:25:00,47.6,23.8,29.69,SSW,200,0.0,-999.0,34,-99.99,,,0.00,79.0,cwc,2013-05-18 13:25:00,
2013-05-18 07:30:00,47.9,23.8,29.69,SSW,201,1.0,-999.0,33,-99.99,,,0.00,76.0,cwc,2013-05-18 13:30:00,
2013-05-18 07:35:00,48.2,25.2,29.68,SSW,201,0.0,-999.0,36,-99.99,,,0.00,77.0,cwc,2013-05-18 13:35:00,
2013-05-18 07:45:00,48.6,26.3,29.69,SSW,201,0.0,-999.0,38,-99.99,,,0.00,81.0,cwc,2013-05-18 13:45:00,
2013-05-18 07:55:00,48.7,25.3,29.69,SSW,201,0.0,-999.0,35,-99.99,,,0.00,98.0,cwc,2013-05-18 13:55:00,
2013-05-18 08:00:00,49.0,25.6,29.69,SSW,200,1.0,-999.0,35,-99.99,,,0.00,98.0,cwc,2013-05-18 14:00:00,
2013-05-18 08:05:00,49.4,25.3,29.69,SSW,201,1.0,-999.0,33,-99.99,,,0.00,95.0,cwc,2013-05-18 14:05:00,
2013-05-18 08:10:00,49.7,26.7,29.69,SSW,201,0.0,-999.0,36,-99.99,,,0.00,97.0,cwc,2013-05-18 14:10:00,
2013-05-18 08:15:00,50.0,26.2,29.69,SSW,201,0.0,-999.0,34,-99.99,,,0.00,83.0,cwc,2013-05-18 14:15:00,
2013-05-18 08:20:00,50.1,26.7,29.69,SSW,200,0.0,-999.0,35,-99.99,,,0.00,74.0,cwc,2013-05-18 14:20:00,
2013-05-18 08:25:00,50.3,29.1,29.69,SSW,200,0.0,-999.0,41,-99.99,,,0.00,123.0,cwc,2013-05-18 14:25:00,
2013-05-18 08:30:00,50.5,29.6,29.69,SSW,201,0.0,-999.0,42,-99.99,,,0.00,348.0,cwc,2013-05-18 14:30:00,
2013-05-18 08:35:00,51.2,29.6,29.69,SSW,201,2.0,-999.0,40,-99.99,,,0.00,496.0,cwc,2013-05-18 14:35:00,
2013-05-18 08:40:00,52.5,28.0,29.69,SSW,200,0.0,-999.0,32,-99.99,,,0.00,531.0,cwc,2013-05-18 14:40:00,
2013-05-18 08:45:00,53.8,28.6,29.69,SSW,201,1.0,-999.0,30,-99.99,,,0.00,580.0,cwc,2013-05-18 14:45:00,
2013-05-18 08:55:00,56.7,30.1,29.69,SSW,200,1.0,-999.0,26,-99.99,,,0.00,591.0,cwc,2013-05-18 14:55:00,
2013-05-18 09:00:00,57.7,31.1,29.69,SSW,199,2.0,-999.0,26,-99.99,,,0.00,327.0,cwc,2013-05-18 15:00:00,
2013-05-18 09:05:00,58.5,31.5,29.68,SSW,200,0.0,-999.0,25,-99.99,,,0.00,547.0,cwc,2013-05-18 15:05:00,
2013-05-18 09:10:00,59.2,32.2,29.68,SSW,200,0.0,-999.0,25,-99.99,,,0.00,601.0,cwc,2013-05-18 15:10:00,
2013-05-18 09:15:00,60.4,33.4,29.68,SSW,199,0.0,-999.0,25,-99.99,,,0.00,652.0,cwc,2013-05-18 15:15:00,
2013-05-18 09:20:00,61.6,33.9,29.68,South,188,0.0,-999.0,23,-99.99,,,0.00,664.0,cwc,2013-05-18 15:20:00,
2013-05-18 09:25:00,62.6,34.5,29.67,South,188,2.0,-999.0,22,-99.99,,,0.00,677.0,cwc,2013-05-18 15:25:00,
2013-05-18 09:30:00,63.7,35.6,29.67,South,187,0.0,-999.0,22,-99.99,,,0.00,691.0,cwc,2013-05-18 15:30:00,
2013-05-18 09:35:00,64.8,36.4,29.66,East,92,1.0,-999.0,21,-99.99,,,0.00,701.0,cwc,2013-05-18 15:35:00,
2013-05-18 09:40:00,65.8,37.4,29.66,East,93,0.0,-999.0,21,-99.99,,,0.00,715.0,cwc,2013-05-18 15:40:00,
2013-05-18 09:45:00,67.1,38.7,29.66,ENE,61,3.0,-999.0,21,-99.99,,,0.00,729.0,cwc,2013-05-18 15:45:00,
2013-05-18 09:50:00,67.8,39.4,29.65,ENE,62,3.0,-999.0,21,-99.99,,,0.00,749.0,cwc,2013-05-18 15:50:00,
2013-05-18 09:55:00,69.1,40.7,29.65,NNW,346,1.0,-999.0,21,-99.99,,,0.00,773.0,cwc,2013-05-18 15:55:00,
2013-05-18 10:00:00,69.7,40.9,29.65,North,5,3.0,-999.0,20,-99.99,,,0.00,770.0,cwc,2013-05-18 16:00:00,
2013-05-18 10:05:00,69.9,41.1,29.64,NE,52,0.0,-999.0,20,-99.99,,,0.00,800.0,cwc,2013-05-18 16:05:00,
2013-05-18 10:10:00,69.9,41.1,29.64,NNE,28,5.0,-999.0,20,-99.99,,,0.00,800.0,cwc,2013-05-18 16:10:00,
2013-05-18 10:15:00,69.7,40.9,29.63,NE,42,2.0,-999.0,20,-99.99,,,0.00,650.0,cwc,2013-05-18 16:15:00,
2013-05-18 10:20:00,69.6,40.4,29.63,WNW,283,4.0,-999.0,19,-99.99,,,0.00,292.0,cwc,2013-05-18 16:20:00,
2013-05-18 10:25:00,69.5,40.3,29.63,WSW,241,4.0,-999.0,19,-99.99,,,0.00,847.0,cwc,2013-05-18 16:25:00,
2013-05-18 10:30:00,69.8,41.0,29.62,WSW,241,3.0,-999.0,20,-99.99,,,0.00,854.0,cwc,2013-05-18 16:30:00,
2013-05-18 10:40:00,70.9,41.7,29.62,SE,132,4.0,-999.0,19,-99.99,,,0.00,856.0,cwc,2013-05-18 16:40:00,
2013-05-18 10:45:00,71.7,42.5,29.61,ESE,110,0.0,-999.0,19,-99.99,,,0.00,884.0,cwc,2013-05-18 16:45:00,
2013-05-18 10:55:00,71.7,42.5,29.61,SW,222,9.0,-999.0,19,-99.99,,,0.00,861.0,cwc,2013-05-18 16:55:00,
2013-05-18 11:00:00,71.0,41.8,29.61,South,182,6.0,-999.0,19,-99.99,,,0.00,265.0,cwc,2013-05-18 17:00:00,
2013-05-18 11:05:00,70.7,41.5,29.61,SSW,194,0.0,-999.0,19,-99.99,,,0.00,823.0,cwc,2013-05-18 17:05:00,
2013-05-18 11:15:00,71.6,42.4,29.61,East,84,3.0,-999.0,19,-99.99,,,0.00,831.0,cwc,2013-05-18 17:15:00,
2013-05-18 11:20:00,72.1,42.6,29.61,SSW,213,7.0,-999.0,18,-99.99,,,0.00,976.0,cwc,2013-05-18 17:20:00,
2013-05-18 11:25:00,71.8,42.6,29.60,SW,223,8.0,-999.0,19,-99.99,,,0.00,970.0,cwc,2013-05-18 17:25:00,
2013-05-18 11:30:00,71.8,42.6,29.60,SW,217,1.0,-999.0,19,-99.99,,,0.00,1014.0,cwc,2013-05-18 17:30:00,
2013-05-18 11:35:00,72.3,43.1,29.60,SW,217,0.0,-999.0,19,-99.99,,,0.00,1056.0,cwc,2013-05-18 17:35:00,
2013-05-18 11:40:00,73.0,43.5,29.60,ESE,110,3.0,-999.0,18,-99.99,,,0.00,919.0,cwc,2013-05-18 17:40:00,
2013-05-18 11:45:00,73.3,43.8,29.60,West,265,3.0,-999.0,18,-99.99,,,0.00,649.0,cwc,2013-05-18 17:45:00,
2013-05-18 11:50:00,73.3,43.8,29.59,SW,221,10.0,-999.0,18,-99.99,,,0.00,661.0,cwc,2013-05-18 17:50:00,
2013-05-18 11:55:00,73.0,43.5,29.59,SSW,199,8.0,-999.0,18,-99.99,,,0.00,884.0,cwc,2013-05-18 17:55:00,
2013-05-18 12:00:00,72.8,43.3,29.58,SW,215,12.0,-999.0,18,-99.99,,,0.00,965.0,cwc,2013-05-18 18:00:00,
2013-05-18 12:05:00,72.5,43.3,29.58,SSW,192,1.0,-999.0,19,-99.99,,,0.00,1143.0,cwc,2013-05-18 18:05:00,
2013-05-18 12:10:00,72.9,43.4,29.58,North,355,5.0,-999.0,18,-99.99,,,0.00,1111.0,cwc,2013-05-18 18:10:00,
2013-05-18 12:15:00,73.0,43.8,29.57,NNW,344,3.0,-999.0,19,-99.99,,,0.00,1132.0,cwc,2013-05-18 18:15:00,
2013-05-18 12:25:00,73.2,43.7,29.58,WSW,240,3.0,-999.0,18,-99.99,,,0.00,830.0,cwc,2013-05-18 18:25:00,
2013-05-18 12:30:00,72.9,43.4,29.58,WSW,238,8.0,-999.0,18,-99.99,,,0.00,599.0,cwc,2013-05-18 18:30:00,
2013-05-18 12:35:00,72.6,43.1,29.58,WSW,243,6.0,-999.0,18,-99.99,,,0.00,1153.0,cwc,2013-05-18 18:35:00,
2013-05-18 12:40:00,72.6,43.1,29.57,NW,307,0.0,-999.0,18,-99.99,,,0.00,536.0,cwc,2013-05-18 18:40:00,
2013-05-18 12:45:00,72.4,42.9,29.57,ENE,70,2.0,-999.0,18,-99.99,,,0.00,459.0,cwc,2013-05-18 18:45:00,
2013-05-18 12:50:00,71.9,42.7,29.57,SSW,212,8.0,-999.0,19,-99.99,,,0.00,396.0,cwc,2013-05-18 18:50:00,
2013-05-18 12:55:00,71.5,42.3,29.57,SW,223,1.0,-999.0,19,-99.99,,,0.00,425.0,cwc,2013-05-18 18:55:00,
2013-05-18 13:00:00,71.6,42.4,29.57,SW,225,2.0,-999.0,19,-99.99,,,0.00,554.0,cwc,2013-05-18 19:00:00,
2013-05-18 13:05:00,71.6,42.4,29.58,WSW,238,2.0,-999.0,19,-99.99,,,0.00,554.0,cwc,2013-05-18 19:05:00,
2013-05-18 13:10:00,71.6,42.4,29.57,East,98,3.0,-999.0,19,-99.99,,,0.00,387.0,cwc,2013-05-18 19:10:00,
2013-05-18 13:15:00,71.7,42.5,29.58,SW,234,6.0,-999.0,19,-99.99,,,0.00,538.0,cwc,2013-05-18 19:15:00,
2013-05-18 13:20:00,71.7,42.5,29.58,South,191,3.0,-999.0,19,-99.99,,,0.00,494.0,cwc,2013-05-18 19:20:00,
2013-05-18 13:25:00,71.9,42.7,29.57,NE,48,2.0,-999.0,19,-99.99,,,0.00,763.0,cwc,2013-05-18 19:25:00,
2013-05-18 13:30:00,72.1,42.9,29.57,SSE,160,4.0,-999.0,19,-99.99,,,0.00,879.0,cwc,2013-05-18 19:30:00,
2013-05-18 13:35:00,72.7,43.2,29.57,WSW,241,4.0,-999.0,18,-99.99,,,0.00,1069.0,cwc,2013-05-18 19:35:00,
2013-05-18 13:40:00,72.9,43.4,29.57,SSW,211,6.0,-999.0,18,-99.99,,,0.00,900.0,cwc,2013-05-18 19:40:00,
2013-05-18 13:45:00,73.2,43.7,29.57,WNW,299,2.0,-999.0,18,-99.99,,,0.00,1039.0,cwc,2013-05-18 19:45:00,
2013-05-18 13:50:00,73.6,44.1,29.56,SW,227,2.0,-999.0,18,-99.99,,,0.00,1060.0,cwc,2013-05-18 19:50:00,
2013-05-18 13:55:00,74.1,44.6,29.56,SSE,161,2.0,-999.0,18,-99.99,,,0.00,619.0,cwc,2013-05-18 19:55:00,
2013-05-18 14:00:00,73.9,44.4,29.55,South,190,3.0,-999.0,18,-99.99,,,0.00,1078.0,cwc,2013-05-18 20:00:00,
2013-05-18 14:05:00,73.8,44.3,29.55,WNW,296,2.0,-999.0,18,-99.99,,,0.00,984.0,cwc,2013-05-18 20:05:00,
2013-05-18 14:10:00,74.2,44.3,29.54,SSW,207,5.0,-999.0,17,-99.99,,,0.00,988.0,cwc,2013-05-18 20:10:00,
2013-05-18 14:15:00,74.3,44.1,29.54,SW,225,8.0,-999.0,16,-99.99,,,0.00,988.0,cwc,2013-05-18 20:15:00,
2013-05-18 14:25:00,74.0,44.1,29.54,WSW,251,6.0,-999.0,17,-99.99,,,0.00,1034.0,cwc,2013-05-18 20:25:00,
2013-05-18 14:30:00,74.2,44.0,29.53,West,271,11.0,-999.0,16,-99.99,,,0.00,1055.0,cwc,2013-05-18 20:30:00,
2013-05-18 14:35:00,73.5,43.3,29.53,SW,229,13.0,-999.0,16,-99.99,,,0.00,520.0,cwc,2013-05-18 20:35:00,
2013-05-18 14:40:00,72.6,42.7,29.53,SW,217,7.0,-999.0,17,-99.99,,,0.00,304.0,cwc,2013-05-18 20:40:00,
2013-05-18 14:45:00,72.3,42.4,29.53,South,180,5.0,-999.0,17,-99.99,,,0.00,255.0,cwc,2013-05-18 20:45:00,
2013-05-18 14:50:00,72.1,42.2,29.54,South,186,4.0,-999.0,17,-99.99,,,0.00,183.0,cwc,2013-05-18 20:50:00,
2013-05-18 14:55:00,71.3,41.8,29.54,WSW,240,7.0,-999.0,18,-99.99,,,0.00,149.0,cwc,2013-05-18 20:55:00,
2013-05-18 15:00:00,70.6,41.4,29.55,SSW,210,14.0,-999.0,19,-99.99,,,0.00,111.0,cwc,2013-05-18 21:00:00,
2013-05-18 15:05:00,68.6,40.2,29.56,South,183,16.0,-999.0,21,-99.99,,,0.00,114.0,cwc,2013-05-18 21:05:00,
2013-05-18 15:10:00,68.0,39.9,29.57,South,172,8.0,-999.0,22,-99.99,,,0.00,135.0,cwc,2013-05-18 21:10:00,
2013-05-18 15:15:00,67.7,39.6,29.56,SSE,165,5.0,-999.0,22,-99.99,,,0.00,132.0,cwc,2013-05-18 21:15:00,
2013-05-18 15:20:00,67.5,39.8,29.55,South,178,20.0,-999.0,23,-99.99,,,0.00,86.0,cwc,2013-05-18 21:20:00,
2013-05-18 15:25:00,67.6,39.5,29.56,ESE,118,2.0,-999.0,22,-99.99,,,0.00,70.0,cwc,2013-05-18 21:25:00,
2013-05-18 15:30:00,67.7,39.6,29.56,SW,219,11.0,-999.0,22,-99.99,,,0.00,91.0,cwc,2013-05-18 21:30:00,
2013-05-18 15:40:00,68.0,39.9,29.55,South,189,11.0,-999.0,22,-99.99,,,0.00,357.0,cwc,2013-05-18 21:40:00,
2013-05-18 15:45:00,68.7,40.6,29.53,ESE,123,4.0,-999.0,22,-99.99,,,0.00,830.0,cwc,2013-05-18 21:45:00,
2013-05-18 15:50:00,69.1,40.7,29.53,SE,141,4.0,-999.0,21,-99.99,,,0.00,214.0,cwc,2013-05-18 21:50:00,
2013-05-18 15:55:00,69.3,40.9,29.52,South,169,3.0,-999.0,21,-99.99,,,0.00,149.0,cwc,2013-05-18 21:55:00,
2013-05-18 16:00:00,69.5,41.1,29.52,SE,138,3.0,-999.0,21,-99.99,,,0.00,125.0,cwc,2013-05-18 22:00:00,
2013-05-18 16:05:00,69.7,41.6,29.52,NE,45,3.0,-999.0,22,-99.99,,,0.00,98.0,cwc,2013-05-18 22:05:00,
2013-05-18 16:10:00,69.5,41.4,29.54,NW,319,3.0,-999.0,22,-99.99,,,0.00,102.0,cwc,2013-05-18 22:10:00,
2013-05-18 16:15:00,69.1,41.4,29.53,NNE,30,2.0,-999.0,23,-99.99,,,0.00,107.0,cwc,2013-05-18 22:15:00,
2013-05-18 16:20:00,68.7,40.6,29.53,NE,38,3.0,-999.0,22,-99.99,,,0.00,134.0,cwc,2013-05-18 22:20:00,
2013-05-18 16:25:00,68.5,40.8,29.53,NE,38,0.0,-999.0,23,-99.99,,,0.00,174.0,cwc,2013-05-18 22:25:00,
2013-05-18 16:30:00,68.5,40.4,29.53,NE,38,1.0,-999.0,22,-99.99,,,0.00,287.0,cwc,2013-05-18 22:30:00,
2013-05-18 16:35:00,68.7,40.6,29.53,NNE,32,3.0,-999.0,22,-99.99,,,0.00,469.0,cwc,2013-05-18 22:35:00,
2013-05-18 16:45:00,70.1,42.0,29.53,NE,49,1.0,-999.0,22,-99.99,,,0.00,664.0,cwc,2013-05-18 22:45:00,
2013-05-18 16:50:00,70.7,42.6,29.52,NE,53,7.0,-999.0,22,-99.99,,,0.00,686.0,cwc,2013-05-18 22:50:00,
2013-05-18 16:55:00,70.8,42.4,29.53,NE,41,2.0,-999.0,21,-99.99,,,0.00,121.0,cwc,2013-05-18 22:55:00,
2013-05-18 17:00:00,70.2,41.8,29.52,SE,141,0.0,-999.0,21,-99.99,,,0.00,65.0,cwc,2013-05-18 23:00:00,
2013-05-18 17:05:00,69.7,41.3,29.52,NNE,26,2.0,-999.0,21,-99.99,,,0.00,72.0,cwc,2013-05-18 23:05:00,
2013-05-18 17:10:00,69.8,40.6,29.51,SW,227,6.0,-999.0,19,-99.99,,,0.00,91.0,cwc,2013-05-18 23:10:00,
2013-05-18 17:15:00,70.2,41.0,29.51,SW,236,4.0,-999.0,19,-99.99,,,0.00,102.0,cwc,2013-05-18 23:15:00,
2013-05-18 17:20:00,70.4,41.2,29.51,WSW,242,0.0,-999.0,19,-99.99,,,0.00,123.0,cwc,2013-05-18 23:20:00,
2013-05-18 17:25:00,70.5,41.3,29.52,SW,217,4.0,-999.0,19,-99.99,,,0.00,183.0,cwc,2013-05-18 23:25:00,
2013-05-18 17:30:00,71.1,41.9,29.51,WSW,254,5.0,-999.0,19,-99.99,,,0.00,545.0,cwc,2013-05-18 23:30:00,
2013-05-18 17:35:00,71.8,42.6,29.51,SW,217,3.0,-999.0,19,-99.99,,,0.00,547.0,cwc,2013-05-18 23:35:00,
2013-05-18 17:40:00,71.9,42.7,29.51,South,186,7.0,-999.0,19,-99.99,,,0.00,121.0,cwc,2013-05-18 23:40:00,
2013-05-18 17:45:00,71.7,42.5,29.52,SW,223,5.0,-999.0,19,-99.99,,,0.00,104.0,cwc,2013-05-18 23:45:00,
2013-05-18 17:50:00,71.5,42.3,29.52,SW,227,7.0,-999.0,19,-99.99,,,0.00,190.0,cwc,2013-05-18 23:50:00,
2013-05-18 17:55:00,71.5,42.3,29.52,SW,221,6.0,-999.0,19,-99.99,,,0.00,399.0,cwc,2013-05-18 23:55:00,
2013-05-18 18:00:00,71.6,42.4,29.52,SW,214,8.0,-999.0,19,-99.99,,,0.00,188.0,cwc,2013-05-19 00:00:00,
2013-05-18 18:05:00,71.5,42.3,29.52,SW,235,5.0,-999.0,19,-99.99,,,0.00,139.0,cwc,2013-05-19 00:05:00,
2013-05-18 18:10:00,71.3,42.1,29.52,WNW,292,0.0,-999.0,19,-99.99,,,0.00,132.0,cwc,2013-05-19 00:10:00,
2013-05-18 18:15:00,71.1,41.9,29.52,WNW,291,2.0,-999.0,19,-99.99,,,0.00,185.0,cwc,2013-05-19 00:15:00,
2013-05-18 18:20:00,71.0,41.8,29.52,WNW,291,2.0,-999.0,19,-99.99,,,0.00,156.0,cwc,2013-05-19 00:20:00,
2013-05-18 18:25:00,71.0,41.5,29.52,SW,232,5.0,-999.0,18,-99.99,,,0.00,137.0,cwc,2013-05-19 00:25:00,
2013-05-18 18:30:00,70.9,41.4,29.52,SW,235,5.0,-999.0,18,-99.99,,,0.00,102.0,cwc,2013-05-19 00:30:00,
2013-05-18 18:35:00,70.7,41.2,29.52,WSW,241,6.0,-999.0,18,-99.99,,,0.00,90.0,cwc,2013-05-19 00:35:00,
2013-05-18 18:40:00,70.5,41.0,29.52,SW,225,3.0,-999.0,18,-99.99,,,0.00,91.0,cwc,2013-05-19 00:40:00,
2013-05-18 18:45:00,70.3,40.8,29.52,WSW,258,1.0,-999.0,18,-99.99,,,0.00,102.0,cwc,2013-05-19 00:45:00,
2013-05-18 18:50:00,70.2,40.7,29.52,WSW,238,0.0,-999.0,18,-99.99,,,0.00,107.0,cwc,2013-05-19 00:50:00,
2013-05-18 18:55:00,70.1,40.6,29.52,WSW,256,5.0,-999.0,18,-99.99,,,0.00,100.0,cwc,2013-05-19 00:55:00,
2013-05-18 19:00:00,70.1,40.6,29.52,WNW,288,6.0,-999.0,18,-99.99,,,0.00,98.0,cwc,2013-05-19 01:00:00,
2013-05-18 19:05:00,70.0,40.5,29.53,SSW,202,3.0,-999.0,18,-99.99,,,0.00,70.0,cwc,2013-05-19 01:05:00,
2013-05-18 19:10:00,69.7,40.2,29.53,SW,225,3.0,-999.0,18,-99.99,,,0.00,46.0,cwc,2013-05-19 01:10:00,
2013-05-18 19:15:00,69.5,40.0,29.52,SW,218,1.0,-999.0,18,-99.99,,,0.00,26.0,cwc,2013-05-19 01:15:00,
2013-05-18 19:20:00,69.3,39.8,29.53,SW,221,2.0,-999.0,18,-99.99,,,0.00,21.0,cwc,2013-05-19 01:20:00,
2013-05-18 19:25:00,69.1,39.6,29.53,SSE,148,0.0,-999.0,18,-99.99,,,0.00,21.0,cwc,2013-05-19 01:25:00,
2013-05-18 19:30:00,68.8,39.3,29.54,West,264,13.0,-999.0,18,-99.99,,,0.00,19.0,cwc,2013-05-19 01:30:00,
2013-05-18 19:35:00,68.3,39.1,29.54,SW,216,9.0,-999.0,19,-99.99,,,0.00,21.0,cwc,2013-05-19 01:35:00,
2013-05-18 19:40:00,67.9,38.7,29.53,SW,229,1.0,-999.0,19,-99.99,,,0.00,21.0,cwc,2013-05-19 01:40:00,
2013-05-18 19:45:00,67.6,38.4,29.54,SW,218,13.0,-999.0,19,-99.99,,,0.00,12.0,cwc,2013-05-19 01:45:00,
2013-05-18 19:50:00,67.4,38.2,29.53,WSW,244,3.0,-999.0,19,-99.99,,,0.00,7.0,cwc,2013-05-19 01:50:00,
2013-05-18 19:55:00,67.2,38.4,29.54,SSW,211,7.0,-999.0,20,-99.99,,,0.00,0.0,cwc,2013-05-19 01:55:00,
2013-05-18 20:00:00,67.0,38.2,29.54,SW,230,13.0,-999.0,20,-99.99,,,0.00,0.0,cwc,2013-05-19 02:00:00,
2013-05-18 20:05:00,66.8,38.0,29.54,NW,304,5.0,-999.0,20,-99.99,,,0.00,0.0,cwc,2013-05-19 02:05:00,
2013-05-18 20:10:00,66.7,37.9,29.54,WSW,238,6.0,-999.0,20,-99.99,,,0.00,0.0,cwc,2013-05-19 02:10:00,
2013-05-18 20:15:00,66.6,37.8,29.54,WSW,252,4.0,-999.0,20,-99.99,,,0.00,0.0,cwc,2013-05-19 02:15:00,
2013-05-18 20:20:00,66.5,38.1,29.54,SW,222,0.0,-999.0,21,-99.99,,,0.00,0.0,cwc,2013-05-19 02:20:00,
2013-05-18 20:25:00,66.4,38.0,29.54,SW,234,8.0,-999.0,21,-99.99,,,0.00,0.0,cwc,2013-05-19 02:25:00,
2013-05-18 20:30:00,66.3,37.9,29.54,SW,223,0.0,-999.0,21,-99.99,,,0.00,0.0,cwc,2013-05-19 02:30:00,
2013-05-18 20:35:00,66.2,37.8,29.54,SW,223,0.0,-999.0,21,-99.99,,,0.00,0.0,cwc,2013-05-19 02:35:00,
2013-05-18 20:40:00,66.1,37.7,29.54,SW,227,1.0,-999.0,21,-99.99,,,0.00,0.0,cwc,2013-05-19 02:40:00,
2013-05-18 20:45:00,66.0,37.6,29.54,SW,218,0.0,-999.0,21,-99.99,,,0.00,0.0,cwc,2013-05-19 02:45:00,
2013-05-18 20:50:00,65.9,37.5,29.55,SW,221,0.0,-999.0,21,-99.99,,,0.00,0.0,cwc,2013-05-19 02:50:00,
2013-05-18 20:55:00,65.8,37.4,29.55,SSW,206,1.0,-999.0,21,-99.99,,,0.00,0.0,cwc,2013-05-19 02:55:00,
2013-05-18 21:00:00,65.8,37.4,29.55,South,190,2.0,-999.0,21,-99.99,,,0.00,0.0,cwc,2013-05-19 03:00:00,
2013-05-18 21:10:00,65.4,37.3,29.56,South,172,0.0,-999.0,22,-99.99,,,0.00,0.0,cwc,2013-05-19 03:10:00,
2013-05-18 21:15:00,65.1,37.0,29.56,SE,132,1.0,-999.0,22,-99.99,,,0.00,0.0,cwc,2013-05-19 03:15:00,
2013-05-18 21:20:00,64.8,37.1,29.55,NNE,32,5.0,-999.0,23,-99.99,,,0.00,0.0,cwc,2013-05-19 03:20:00,
2013-05-18 21:25:00,64.5,36.8,29.56,WNW,290,9.0,-999.0,23,-99.99,,,0.00,0.0,cwc,2013-05-19 03:25:00,
2013-05-18 21:30:00,64.2,36.5,29.56,WSW,242,0.0,-999.0,23,-99.99,,,0.00,0.0,cwc,2013-05-19 03:30:00,
2013-05-18 21:40:00,63.7,36.3,29.57,WSW,244,4.0,-999.0,24,-99.99,,,0.00,0.0,cwc,2013-05-19 03:40:00,
2013-05-18 21:45:00,63.6,35.9,29.57,South,178,1.0,-999.0,23,-99.99,,,0.00,0.0,cwc,2013-05-19 03:45:00,
2013-05-18 21:50:00,63.5,36.1,29.58,South,178,0.0,-999.0,24,-99.99,,,0.00,0.0,cwc,2013-05-19 03:50:00,
2013-05-18 21:55:00,63.4,36.0,29.58,South,178,1.0,-999.0,24,-99.99,,,0.00,0.0,cwc,2013-05-19 03:55:00,
2013-05-18 22:00:00,63.2,35.8,29.58,South,178,0.0,-999.0,24,-99.99,,,0.00,0.0,cwc,2013-05-19 04:00:00,
2013-05-18 22:05:00,63.0,35.6,29.58,South,178,0.0,-999.0,24,-99.99,,,0.00,0.0,cwc,2013-05-19 04:05:00,
2013-05-18 22:10:00,62.6,35.6,29.58,South,172,3.0,-999.0,25,-99.99,,,0.00,0.0,cwc,2013-05-19 04:10:00,
2013-05-18 22:15:00,62.4,35.4,29.59,South,172,2.0,-999.0,25,-99.99,,,0.00,0.0,cwc,2013-05-19 04:15:00,
2013-05-18 22:20:00,62.2,35.2,29.59,South,171,0.0,-999.0,25,-99.99,,,0.00,0.0,cwc,2013-05-19 04:20:00,
2013-05-18 22:25:00,62.0,35.0,29.59,South,171,0.0,-999.0,25,-99.99,,,0.00,0.0,cwc,2013-05-19 04:25:00,
2013-05-18 22:30:00,61.9,34.9,29.59,South,171,0.0,-999.0,25,-99.99,,,0.00,0.0,cwc,2013-05-19 04:30:00,
2013-05-18 22:35:00,61.7,35.1,29.59,South,171,0.0,-999.0,26,-99.99,,,0.00,0.0,cwc,2013-05-19 04:35:00,
2013-05-18 22:40:00,61.6,35.0,29.59,South,171,0.0,-999.0,26,-99.99,,,0.00,0.0,cwc,2013-05-19 04:40:00,
2013-05-18 22:45:00,61.4,34.8,29.59,South,171,0.0,-999.0,26,-99.99,,,0.00,0.0,cwc,2013-05-19 04:45:00,
2013-05-18 22:50:00,61.2,34.6,29.59,South,171,1.0,-999.0,26,-99.99,,,0.00,0.0,cwc,2013-05-19 04:50:00,
2013-05-18 22:55:00,61.1,34.5,29.60,South,171,0.0,-999.0,26,-99.99,,,0.00,0.0,cwc,2013-05-19 04:55:00,
2013-05-18 23:00:00,61.0,34.7,29.60,South,171,0.0,-999.0,27,-99.99,,,0.00,0.0,cwc,2013-05-19 05:00:00,
2013-05-18 23:05:00,60.9,34.3,29.60,South,171,2.0,-999.0,26,-99.99,,,0.00,0.0,cwc,2013-05-19 05:05:00,
2013-05-18 23:10:00,60.9,34.6,29.60,South,171,0.0,-999.0,27,-99.99,,,0.00,0.0,cwc,2013-05-19 05:10:00,
2013-05-18 23:15:00,60.7,34.4,29.61,South,171,1.0,-999.0,27,-99.99,,,0.00,0.0,cwc,2013-05-19 05:15:00,
2013-05-18 23:20:00,60.4,34.1,29.61,South,171,0.0,-999.0,27,-99.99,,,0.00,0.0,cwc,2013-05-19 05:20:00,
2013-05-18 23:25:00,60.2,33.9,29.61,South,171,0.0,-999.0,27,-99.99,,,0.00,0.0,cwc,2013-05-19 05:25:00,
2013-05-18 23:30:00,60.1,33.8,29.61,South,171,0.0,-999.0,27,-99.99,,,0.00,0.0,cwc,2013-05-19 05:30:00,
2013-05-18 23:35:00,60.0,34.1,29.61,South,171,0.0,-999.0,28,-99.99,,,0.00,0.0,cwc,2013-05-19 05:35:00,
2013-05-18 23:40:00,60.0,34.1,29.61,South,171,0.0,-999.0,28,-99.99,,,0.00,0.0,cwc,2013-05-19 05:40:00,
2013-05-18 23:45:00,60.0,34.1,29.61,South,171,0.0,-999.0,28,-99.99,,,0.00,0.0,cwc,2013-05-19 05:45:00,
2013-05-18 23:50:00,59.9,34.0,29.61,South,171,0.0,-999.0,28,-99.99,,,0.00,0.0,cwc,2013-05-19 05:50:00,
2013-05-18 23:55:00,59.9,34.0,29.61,South,171,0.0,-999.0,28,-99.99,,,0.00,0.0,cwc,2013-05-19 05:55:00,